createdAt,value
2022-10-13T00:00:43.254Z,2.60
2022-10-13T00:03:10.035Z,2.50
2022-10-13T00:05:44.595Z,2.50
2022-10-13T00:08:12.690Z,2.50
2022-10-13T00:10:44.487Z,2.50
2022-10-13T00:13:12.450Z,2.40
2022-10-13T00:15:44.436Z,2.50
2022-10-13T00:18:11.365Z,2.50
2022-10-13T00:20:43.501Z,2.40
2022-10-13T00:23:10.787Z,2.40
2022-10-13T00:25:42.234Z,2.40
2022-10-13T00:28:09.828Z,2.30
2022-10-13T00:30:37.280Z,2.30
2022-10-13T00:33:05.099Z,2.30
2022-10-13T00:35:31.923Z,2.30
2022-10-13T00:37:58.835Z,2.30
2022-10-13T00:40:29.905Z,2.30
2022-10-13T00:42:56.853Z,2.30
2022-10-13T00:45:29.610Z,2.30
2022-10-13T00:48:00.693Z,2.30
2022-10-13T00:50:37.812Z,2.30
2022-10-13T00:53:07.300Z,2.30
2022-10-13T00:55:38.577Z,2.30
2022-10-13T00:58:07.726Z,2.40
2022-10-13T01:00:35.322Z,2.30
2022-10-13T01:03:02.838Z,2.30
2022-10-13T01:05:30.928Z,2.30
2022-10-13T01:07:59.773Z,2.20
2022-10-13T01:10:40.647Z,2.30
2022-10-13T01:13:31.161Z,2.20
2022-10-13T01:16:29.863Z,2.20
2022-10-13T01:19:32.078Z,2.30
2022-10-13T01:22:46.571Z,2.30
2022-10-13T01:25:27.787Z,2.40
2022-10-13T01:28:19.842Z,2.50
2022-10-13T01:30:56.305Z,2.60
2022-10-13T01:33:43.900Z,2.70
2022-10-13T01:36:16.596Z,2.90
2022-10-13T01:39:03.124Z,3.10
2022-10-13T01:41:42.740Z,3.20
2022-10-13T01:44:16.205Z,3.30
2022-10-13T01:46:51.642Z,3.30
2022-10-13T01:49:21.909Z,3.30
2022-10-13T01:51:50.173Z,3.40
2022-10-13T01:54:19.501Z,3.40
2022-10-13T01:56:54.058Z,3.50
2022-10-13T01:59:22.261Z,3.50
2022-10-13T02:02:07.836Z,3.40
2022-10-13T02:04:45.964Z,3.40
2022-10-13T02:07:45.563Z,3.30
2022-10-13T02:10:27.204Z,3.30
2022-10-13T02:13:00.631Z,3.20
2022-10-13T02:16:03.041Z,3.20
2022-10-13T02:18:33.666Z,3.20
2022-10-13T02:21:01.581Z,3.30
2022-10-13T02:23:28.850Z,3.40
2022-10-13T02:25:57.269Z,3.30
2022-10-13T02:28:24.386Z,3.20
2022-10-13T02:30:51.677Z,3.30
2022-10-13T02:33:19.042Z,3.20
2022-10-13T02:35:45.810Z,3.20
2022-10-13T02:38:12.929Z,3.10
2022-10-13T02:40:44.893Z,3.00
2022-10-13T02:43:11.721Z,3.00
2022-10-13T02:45:38.502Z,3.00
2022-10-13T02:48:05.607Z,3.00
2022-10-13T02:50:32.546Z,2.90
2022-10-13T02:52:59.643Z,2.80
2022-10-13T02:55:26.439Z,2.80
2022-10-13T02:57:56.455Z,2.80
2022-10-13T03:00:23.681Z,2.70
2022-10-13T03:02:50.734Z,2.70
2022-10-13T03:05:17.679Z,2.70
2022-10-13T03:07:44.417Z,2.70
2022-10-13T03:10:11.185Z,2.70
2022-10-13T03:12:37.938Z,2.70
2022-10-13T03:15:05.579Z,2.60
2022-10-13T03:17:32.373Z,2.70
2022-10-13T03:19:59.664Z,2.70
2022-10-13T03:22:26.597Z,2.70
2022-10-13T03:24:53.784Z,2.80
2022-10-13T03:27:20.918Z,2.90
2022-10-13T03:29:47.945Z,2.90
2022-10-13T03:32:14.714Z,2.90
2022-10-13T03:34:41.471Z,3.00
2022-10-13T03:37:08.449Z,3.00
2022-10-13T03:39:41.613Z,3.00
2022-10-13T03:42:09.461Z,3.00
2022-10-13T03:44:39.050Z,3.10
2022-10-13T03:47:05.910Z,3.20
2022-10-13T03:49:32.699Z,3.30
2022-10-13T03:51:59.511Z,3.30
2022-10-13T03:54:26.394Z,3.30
2022-10-13T03:56:53.240Z,3.30
2022-10-13T03:59:19.948Z,3.40
2022-10-13T04:01:46.826Z,3.30
2022-10-13T04:04:13.705Z,3.30
2022-10-13T04:06:42.020Z,3.30
2022-10-13T04:09:09.516Z,3.30
2022-10-13T04:11:36.477Z,3.30
2022-10-13T04:14:03.653Z,3.30
2022-10-13T04:16:31.713Z,3.40
2022-10-13T04:19:04.029Z,3.40
2022-10-13T04:21:33.537Z,3.50
2022-10-13T04:24:01.585Z,3.50
2022-10-13T04:26:31.154Z,3.50
2022-10-13T04:28:59.125Z,3.50
2022-10-13T04:31:28.251Z,3.50
2022-10-13T04:33:55.507Z,3.50
2022-10-13T04:36:22.340Z,3.60
2022-10-13T04:38:50.437Z,3.60
2022-10-13T04:41:18.684Z,3.60
2022-10-13T04:43:49.081Z,3.60
2022-10-13T04:46:21.390Z,3.70
2022-10-13T04:48:51.812Z,3.70
2022-10-13T04:51:24.223Z,3.70
2022-10-13T04:54:01.067Z,3.80
2022-10-13T04:56:28.648Z,3.80
2022-10-13T04:59:00.029Z,3.70
2022-10-13T05:01:27.167Z,3.80
2022-10-13T05:03:56.677Z,3.80
2022-10-13T05:06:33.138Z,3.90
2022-10-13T05:09:00.500Z,3.90
2022-10-13T05:11:28.194Z,4.00
2022-10-13T05:13:56.037Z,3.90
2022-10-13T05:16:24.080Z,4.00
2022-10-13T05:18:54.569Z,3.90
2022-10-13T05:21:27.416Z,3.90
2022-10-13T05:23:55.943Z,3.90
2022-10-13T05:26:29.379Z,3.80
2022-10-13T05:29:00.530Z,3.80
2022-10-13T05:31:31.683Z,3.80
2022-10-13T05:33:59.433Z,3.80
2022-10-13T05:36:31.987Z,3.80
2022-10-13T05:39:01.592Z,3.90
2022-10-13T05:41:29.454Z,3.80
2022-10-13T05:44:08.557Z,3.90
2022-10-13T05:46:39.923Z,3.80
2022-10-13T05:49:06.716Z,3.90
2022-10-13T05:51:44.382Z,3.80
2022-10-13T05:54:15.371Z,3.80
2022-10-13T05:56:48.088Z,3.80
2022-10-13T05:59:18.202Z,3.90
2022-10-13T06:01:47.913Z,3.90
2022-10-13T06:04:20.286Z,3.90
2022-10-13T06:06:48.684Z,4.00
2022-10-13T06:09:15.918Z,4.00
2022-10-13T06:11:43.345Z,4.00
2022-10-13T06:14:13.000Z,4.10
2022-10-13T06:16:41.046Z,4.10
2022-10-13T06:19:07.838Z,4.20
2022-10-13T06:21:35.613Z,4.20
2022-10-13T06:24:03.206Z,4.20
2022-10-13T06:26:30.107Z,4.30
2022-10-13T06:28:59.459Z,4.40
2022-10-13T06:31:30.772Z,4.50
2022-10-13T06:33:58.702Z,4.50
2022-10-13T06:36:25.570Z,4.70
2022-10-13T06:38:52.424Z,4.80
2022-10-13T06:41:21.412Z,4.90
2022-10-13T06:43:48.252Z,5.00
2022-10-13T06:46:16.817Z,5.10
2022-10-13T06:48:43.677Z,5.20
2022-10-13T06:51:12.196Z,5.30
2022-10-13T06:53:39.095Z,5.40
2022-10-13T06:56:07.055Z,5.50
2022-10-13T06:58:35.424Z,5.60
2022-10-13T07:01:02.921Z,5.70
2022-10-13T07:03:29.698Z,5.80
2022-10-13T07:06:05.062Z,5.90
2022-10-13T07:08:32.889Z,5.90
2022-10-13T07:10:59.787Z,5.90
2022-10-13T07:13:26.620Z,6.10
2022-10-13T07:15:53.479Z,6.10
2022-10-13T07:18:20.514Z,6.20
2022-10-13T07:20:47.486Z,6.40
2022-10-13T07:23:14.267Z,6.70
2022-10-13T07:25:41.662Z,7.00
2022-10-13T07:28:08.874Z,7.30
2022-10-13T07:30:35.772Z,7.50
2022-10-13T07:33:02.869Z,7.70
2022-10-13T07:35:30.839Z,7.80
2022-10-13T07:37:57.753Z,7.90
2022-10-13T07:40:24.815Z,8.00
2022-10-13T07:42:51.540Z,8.10
2022-10-13T07:45:18.370Z,8.20
2022-10-13T07:47:45.108Z,8.30
2022-10-13T07:50:11.993Z,8.40
2022-10-13T07:52:38.998Z,8.60
2022-10-13T07:55:06.387Z,8.80
2022-10-13T07:57:33.218Z,9.00
2022-10-13T08:00:00.113Z,9.20
2022-10-13T08:02:27.164Z,9.40
2022-10-13T08:04:54.002Z,9.50
2022-10-13T08:07:21.099Z,9.80
2022-10-13T08:09:49.817Z,10.00
2022-10-13T08:12:17.225Z,10.20
2022-10-13T08:14:44.383Z,10.40
2022-10-13T08:17:14.195Z,10.50
2022-10-13T08:19:40.980Z,10.70
2022-10-13T08:22:10.887Z,10.90
2022-10-13T08:24:39.845Z,11.00
2022-10-13T08:27:06.569Z,11.20
2022-10-13T08:29:35.725Z,11.40
2022-10-13T08:32:02.476Z,11.70
2022-10-13T08:34:29.414Z,11.80
2022-10-13T08:36:57.307Z,12.00
2022-10-13T08:39:24.864Z,12.20
2022-10-13T08:41:52.933Z,12.30
2022-10-13T08:47:30.396Z,12.50
2022-10-13T08:50:01.191Z,12.60
2022-10-13T08:52:42.886Z,12.70
2022-10-13T08:55:24.694Z,12.80
2022-10-13T08:57:51.790Z,12.90
2022-10-13T09:00:20.714Z,12.90
2022-10-13T09:02:50.052Z,13.00
2022-10-13T09:05:42.052Z,13.10
2022-10-13T09:08:19.286Z,13.20
2022-10-13T09:10:48.900Z,13.40
2022-10-13T09:13:19.361Z,13.30
2022-10-13T09:15:52.877Z,13.50
2022-10-13T09:18:30.209Z,13.50
2022-10-13T09:21:19.558Z,13.60
2022-10-13T09:23:46.369Z,13.70
2022-10-13T09:26:21.314Z,13.80
2022-10-13T09:28:49.056Z,13.90
2022-10-13T09:31:25.122Z,14.00
2022-10-13T09:34:09.257Z,14.00
2022-10-13T09:36:38.229Z,14.00
2022-10-13T09:39:15.241Z,14.10
2022-10-13T09:41:44.395Z,14.10
2022-10-13T09:44:18.940Z,14.40
2022-10-13T09:46:54.862Z,14.40
2022-10-13T09:49:37.649Z,14.60
2022-10-13T09:52:13.143Z,14.60
2022-10-13T09:54:43.587Z,14.70
2022-10-13T09:57:33.751Z,14.90
2022-10-13T10:00:23.996Z,15.00
2022-10-13T10:03:12.299Z,15.10
2022-10-13T10:05:51.645Z,15.20
2022-10-13T10:08:28.896Z,15.40
2022-10-13T10:11:04.847Z,15.60
2022-10-13T10:13:31.775Z,15.70
2022-10-13T10:16:13.451Z,15.70
2022-10-13T10:18:58.901Z,16.00
2022-10-13T10:21:43.349Z,16.00
2022-10-13T10:24:30.729Z,16.10
2022-10-13T10:27:15.284Z,16.30
2022-10-13T10:30:21.097Z,16.40
2022-10-13T10:32:50.824Z,16.40
2022-10-13T10:35:44.805Z,16.50
2022-10-13T10:38:52.825Z,16.50
2022-10-13T10:41:31.204Z,16.40
2022-10-13T10:44:02.490Z,16.50
2022-10-13T10:46:35.695Z,16.40
2022-10-13T10:49:16.884Z,16.40
2022-10-13T10:51:44.468Z,16.50
2022-10-13T10:54:32.881Z,16.60
2022-10-13T10:57:07.234Z,16.60
2022-10-13T10:59:40.332Z,16.70
2022-10-13T11:02:13.460Z,16.80
2022-10-13T11:04:46.914Z,17.00
2022-10-13T11:07:34.057Z,17.10
2022-10-13T11:10:17.581Z,17.00
2022-10-13T11:12:47.468Z,17.00
2022-10-13T11:15:27.955Z,17.00
2022-10-13T11:17:54.897Z,17.30
2022-10-13T11:20:21.580Z,17.30
2022-10-13T11:23:17.251Z,17.30
2022-10-13T11:25:46.411Z,17.30
2022-10-13T11:28:22.346Z,17.20
2022-10-13T11:30:54.847Z,17.00
2022-10-13T11:33:39.725Z,17.10
2022-10-13T11:36:44.163Z,17.30
2022-10-13T11:39:27.448Z,17.30
2022-10-13T11:42:28.714Z,17.40
2022-10-13T11:44:59.286Z,17.50
2022-10-13T11:47:57.170Z,17.70
2022-10-13T11:50:33.115Z,17.80
2022-10-13T11:53:12.307Z,17.70
2022-10-13T11:55:52.182Z,17.70
2022-10-13T11:58:30.497Z,17.90
2022-10-13T12:00:58.449Z,18.00
2022-10-13T12:03:38.044Z,17.90
2022-10-13T12:06:34.775Z,18.00
2022-10-13T12:09:19.278Z,17.90
2022-10-13T12:11:46.969Z,18.00
2022-10-13T12:14:24.178Z,18.10
2022-10-13T12:16:59.195Z,18.30
2022-10-13T12:19:28.508Z,18.20
2022-10-13T12:21:57.806Z,17.80
2022-10-13T12:24:30.364Z,17.70
2022-10-13T12:26:58.490Z,17.60
2022-10-13T12:29:33.388Z,17.50
2022-10-13T12:32:04.340Z,17.40
2022-10-13T12:34:35.112Z,17.40
2022-10-13T12:37:21.403Z,17.30
2022-10-13T12:39:49.278Z,17.40
2022-10-13T12:42:17.048Z,17.60
2022-10-13T12:44:45.100Z,17.60
2022-10-13T12:47:39.785Z,17.70
2022-10-13T12:50:25.746Z,17.70
2022-10-13T12:53:06.017Z,17.80
2022-10-13T12:55:33.604Z,17.60
2022-10-13T12:58:00.610Z,17.60
2022-10-13T13:00:29.538Z,17.50
2022-10-13T13:03:01.744Z,17.50
2022-10-13T13:05:36.325Z,17.50
2022-10-13T13:08:06.265Z,17.40
2022-10-13T13:10:35.036Z,17.30
2022-10-13T13:13:15.187Z,17.20
2022-10-13T13:15:44.918Z,17.10
2022-10-13T13:18:26.626Z,17.10
2022-10-13T13:20:54.498Z,17.10
2022-10-13T13:23:23.183Z,17.00
2022-10-13T13:26:03.616Z,17.10
2022-10-13T13:28:32.368Z,17.30
2022-10-13T13:31:03.403Z,17.40
2022-10-13T13:33:30.288Z,17.60
2022-10-13T13:35:58.846Z,17.80
2022-10-13T13:38:25.603Z,17.90
2022-10-13T13:40:52.402Z,17.90
2022-10-13T13:43:19.100Z,18.30
2022-10-13T13:45:46.126Z,19.70
2022-10-13T13:48:15.107Z,20.30
2022-10-13T13:50:41.832Z,20.00
2022-10-13T13:53:09.482Z,19.40
2022-10-13T13:55:36.405Z,19.20
2022-10-13T13:58:05.425Z,19.70
2022-10-13T14:00:32.169Z,20.20
2022-10-13T14:02:58.969Z,20.20
2022-10-13T14:05:26.535Z,20.60
2022-10-13T14:07:55.839Z,20.70
2022-10-13T14:10:22.708Z,21.30
2022-10-13T14:12:50.259Z,22.10
2022-10-13T14:15:17.265Z,22.30
2022-10-13T14:17:44.175Z,22.40
2022-10-13T14:20:11.455Z,22.30
2022-10-13T14:22:39.189Z,21.90
2022-10-13T14:25:07.095Z,21.80
2022-10-13T14:27:35.334Z,22.40
2022-10-13T14:30:02.965Z,22.70
2022-10-13T14:32:30.074Z,22.90
2022-10-13T14:34:57.196Z,23.50
2022-10-13T14:37:27.881Z,24.20
2022-10-13T14:39:58.722Z,24.30
2022-10-13T14:42:25.484Z,25.20
2022-10-13T14:44:52.317Z,25.00
2022-10-13T14:47:19.373Z,23.60
2022-10-13T14:49:46.675Z,22.50
2022-10-13T14:52:13.506Z,21.30
2022-10-13T14:54:44.675Z,20.50
2022-10-13T14:57:15.771Z,20.00
2022-10-13T14:59:43.353Z,19.00
2022-10-13T15:02:11.510Z,18.30
2022-10-13T15:04:39.496Z,17.80
2022-10-13T15:07:06.641Z,17.40
2022-10-13T15:09:52.281Z,17.50
2022-10-13T15:12:23.460Z,18.10
2022-10-13T15:14:50.448Z,18.10
2022-10-13T15:17:17.322Z,18.00
2022-10-13T15:19:44.039Z,17.50
2022-10-13T15:22:13.484Z,17.00
2022-10-13T15:24:40.355Z,16.70
2022-10-13T15:27:07.426Z,16.30
2022-10-13T15:29:34.274Z,16.10
2022-10-13T15:32:27.473Z,15.70
2022-10-13T15:34:54.719Z,15.60
2022-10-13T15:37:21.557Z,15.40
2022-10-13T15:39:52.006Z,15.30
2022-10-13T15:42:21.732Z,15.10
2022-10-13T15:47:36.376Z,14.70
2022-10-13T15:50:03.668Z,14.60
2022-10-13T15:52:34.644Z,14.40
2022-10-13T15:55:02.284Z,14.20
2022-10-13T15:57:31.052Z,14.10
2022-10-13T15:59:57.817Z,13.80
2022-10-13T16:02:24.533Z,13.60
2022-10-13T16:04:51.509Z,13.50
2022-10-13T16:07:18.458Z,13.40
2022-10-13T16:09:45.639Z,13.30
2022-10-13T16:12:12.596Z,13.10
2022-10-13T16:14:39.331Z,13.00
2022-10-13T16:17:06.152Z,12.80
2022-10-13T16:19:32.902Z,12.60
2022-10-13T16:21:59.660Z,12.40
2022-10-13T16:24:26.368Z,12.30
2022-10-13T16:26:53.211Z,12.20
2022-10-13T16:29:19.930Z,12.10
2022-10-13T16:31:46.657Z,12.00
2022-10-13T16:34:13.791Z,11.90
2022-10-13T16:36:40.544Z,11.80
2022-10-13T16:39:07.529Z,11.70
2022-10-13T16:41:37.263Z,11.60
2022-10-13T16:44:04.540Z,11.50
2022-10-13T16:46:33.108Z,11.40
2022-10-13T16:49:00.561Z,11.30
2022-10-13T16:51:28.119Z,11.30
2022-10-13T16:54:02.791Z,11.20
2022-10-13T16:56:31.061Z,11.20
2022-10-13T16:59:03.434Z,11.20
2022-10-13T17:01:31.643Z,11.10
2022-10-13T17:03:58.852Z,11.10
2022-10-13T17:06:27.947Z,11.00
2022-10-13T17:08:57.415Z,11.00
2022-10-13T17:11:30.213Z,10.90
2022-10-13T17:14:01.004Z,10.90
2022-10-13T17:16:33.633Z,10.70
2022-10-13T17:19:00.599Z,10.70
2022-10-13T17:21:35.789Z,10.70
2022-10-13T17:24:03.865Z,10.60
2022-10-13T17:26:32.388Z,10.50
2022-10-13T17:29:02.149Z,10.40
2022-10-13T17:31:29.103Z,10.40
2022-10-13T17:33:55.995Z,10.40
2022-10-13T17:36:28.821Z,10.30
2022-10-13T17:39:01.742Z,10.20
2022-10-13T17:41:32.545Z,10.10
2022-10-13T17:43:59.482Z,10.00
2022-10-13T17:46:36.925Z,9.90
2022-10-13T17:49:06.962Z,9.90
2022-10-13T17:51:33.780Z,9.80
2022-10-13T17:54:00.693Z,9.70
2022-10-13T17:56:28.814Z,9.60
2022-10-13T17:58:55.566Z,9.60
2022-10-13T18:01:42.055Z,9.60
2022-10-13T18:04:14.391Z,9.60
2022-10-13T18:06:45.240Z,9.60
2022-10-13T18:09:19.960Z,9.50
2022-10-13T18:11:50.684Z,9.40
2022-10-13T18:14:19.722Z,9.40
2022-10-13T18:16:49.249Z,9.40
2022-10-13T18:19:16.667Z,9.30
2022-10-13T18:21:43.877Z,9.30
2022-10-13T18:24:11.481Z,9.30
2022-10-13T18:26:38.692Z,9.30
2022-10-13T18:29:07.954Z,9.30
2022-10-13T18:31:38.266Z,9.20
2022-10-13T18:34:08.730Z,9.20
2022-10-13T18:36:41.464Z,9.20
2022-10-13T18:39:10.803Z,9.20
2022-10-13T18:41:39.429Z,9.20
2022-10-13T18:44:06.864Z,9.10
2022-10-13T18:46:34.864Z,9.10
2022-10-13T18:49:02.651Z,9.10
2022-10-13T18:51:35.580Z,9.00
2022-10-13T18:54:04.297Z,9.00
2022-10-13T18:56:32.807Z,8.90
2022-10-13T18:59:01.652Z,8.80
2022-10-13T19:01:31.776Z,8.80
2022-10-13T19:03:59.183Z,8.80
2022-10-13T19:06:27.506Z,8.70
2022-10-13T19:08:56.488Z,8.60
2022-10-13T19:11:24.514Z,8.50
2022-10-13T19:13:51.556Z,8.50
2022-10-13T19:16:24.887Z,8.40
2022-10-13T19:18:52.032Z,8.30
2022-10-13T19:21:20.136Z,8.30
2022-10-13T19:23:47.449Z,8.30
2022-10-13T19:26:25.957Z,8.30
2022-10-13T19:28:58.229Z,8.30
2022-10-13T19:31:27.303Z,8.20
2022-10-13T19:33:55.589Z,8.00
2022-10-13T19:36:37.669Z,8.00
2022-10-13T19:39:10.761Z,7.90
2022-10-13T19:41:38.799Z,7.90
2022-10-13T19:44:05.508Z,7.80
2022-10-13T19:46:40.221Z,7.70
2022-10-13T19:49:07.428Z,7.70
2022-10-13T19:51:35.699Z,7.70
2022-10-13T19:54:05.018Z,7.60
2022-10-13T19:56:33.223Z,7.60
2022-10-13T19:59:00.817Z,7.60
2022-10-13T20:01:28.328Z,7.60
2022-10-13T20:03:55.218Z,7.50
2022-10-13T20:06:23.301Z,7.50
2022-10-13T20:08:50.665Z,7.50
2022-10-13T20:11:23.780Z,7.40
2022-10-13T20:13:52.440Z,7.40
2022-10-13T20:16:22.187Z,7.40
2022-10-13T20:18:59.839Z,7.30
2022-10-13T20:21:27.585Z,7.30
2022-10-13T20:23:54.911Z,7.30
2022-10-13T20:26:22.362Z,7.20
2022-10-13T20:28:50.750Z,7.20
2022-10-13T20:31:19.698Z,7.20
2022-10-13T20:33:49.260Z,7.10
2022-10-13T20:36:18.909Z,7.10
2022-10-13T20:38:48.103Z,7.10
2022-10-13T20:41:27.354Z,7.10
2022-10-13T20:43:56.309Z,7.10
2022-10-13T20:46:24.108Z,7.10
2022-10-13T20:49:09.824Z,7.10
2022-10-13T20:51:37.014Z,7.20
2022-10-13T20:54:03.850Z,7.20
2022-10-13T20:56:30.784Z,7.10
2022-10-13T20:59:03.229Z,7.10
2022-10-13T21:01:29.990Z,7.10
2022-10-13T21:03:56.961Z,7.00
2022-10-13T21:06:25.138Z,7.00
2022-10-13T21:08:52.435Z,7.00
2022-10-13T21:11:20.995Z,7.00
2022-10-13T21:13:48.547Z,6.90
2022-10-13T21:16:18.284Z,7.00
2022-10-13T21:18:50.177Z,7.00
2022-10-13T21:21:22.678Z,6.90
2022-10-13T21:23:58.465Z,6.90
2022-10-13T21:26:28.483Z,6.80
2022-10-13T21:28:56.035Z,6.80
2022-10-13T21:31:24.008Z,6.80
2022-10-13T21:33:51.276Z,6.80
2022-10-13T21:36:20.074Z,6.70
2022-10-13T21:38:49.858Z,6.70
2022-10-13T21:41:16.838Z,6.60
2022-10-13T21:43:44.490Z,6.60
2022-10-13T21:46:23.316Z,6.60
2022-10-13T21:48:58.571Z,6.50
2022-10-13T21:51:31.505Z,6.40
2022-10-13T21:54:12.672Z,6.40
2022-10-13T21:56:41.210Z,6.40
2022-10-13T21:59:09.972Z,6.40
2022-10-13T22:01:36.691Z,6.40
2022-10-13T22:04:09.574Z,6.40
2022-10-13T22:06:36.233Z,6.40
2022-10-13T22:09:04.757Z,6.30
2022-10-13T22:11:33.262Z,6.40
2022-10-13T22:14:04.344Z,6.40
2022-10-13T22:16:36.229Z,6.40
2022-10-13T22:19:03.142Z,6.40
2022-10-13T22:21:35.449Z,6.30
2022-10-13T22:24:04.854Z,6.40
2022-10-13T22:26:34.423Z,6.40
2022-10-13T22:29:03.574Z,6.30
2022-10-13T22:31:32.626Z,6.30
2022-10-13T22:34:03.874Z,6.30
2022-10-13T22:36:31.543Z,6.30
2022-10-13T22:39:01.884Z,6.10
2022-10-13T22:41:28.800Z,6.10
2022-10-13T22:43:57.214Z,6.00
2022-10-13T22:46:30.599Z,5.90
2022-10-13T22:48:58.044Z,6.00
2022-10-13T22:51:27.623Z,6.10
2022-10-13T22:53:55.219Z,5.90
2022-10-13T22:56:24.919Z,5.90
2022-10-13T22:59:02.023Z,5.90
2022-10-13T23:01:32.817Z,5.80
2022-10-13T23:04:00.500Z,5.80
2022-10-13T23:06:33.737Z,5.70
2022-10-13T23:09:08.034Z,5.70
2022-10-13T23:11:35.318Z,5.60
2022-10-13T23:14:05.175Z,5.60
2022-10-13T23:16:32.217Z,5.50
2022-10-13T23:18:58.966Z,5.50
2022-10-13T23:21:30.017Z,5.40
2022-10-13T23:23:59.364Z,5.40
2022-10-13T23:26:26.906Z,5.40
2022-10-13T23:28:55.984Z,5.30
2022-10-13T23:31:23.086Z,5.30
2022-10-13T23:33:49.880Z,5.30
2022-10-13T23:36:20.722Z,5.30
2022-10-13T23:38:48.397Z,5.30
2022-10-13T23:41:16.363Z,5.30
2022-10-13T23:43:43.550Z,5.30
2022-10-13T23:46:11.125Z,5.30
2022-10-13T23:48:39.494Z,5.30
2022-10-13T23:51:09.601Z,5.20
2022-10-13T23:53:38.042Z,5.20
2022-10-13T23:56:06.179Z,5.10
2022-10-13T23:58:35.150Z,5.10
